KGGE

Georgetown County Airport

Georgetown, South Carolina, USA
METAR KGGE 171515Z AUTO 00000KT 10SM CLR 09/08 A3011 RMK AO2
Observed Flight Rules
Dec-17 @ 15:15 UTC (28 minutes ago) Visual Flight Rules
Visibility Clouds
10 miles
  • Clear skies
Temperatures Readings
Current 9°C / 48°F
Dewpoint 8°C / 46°F
Humidity 94%
Altimeter 30.11" Hg
Pressure 1020 hPa
Elevation 12
METAR KGGE 171515Z AUTO 00000KT 10SM CLR 09/08 A3011 RMK AO2
Observed Flight Rules
Dec-17 @ 15:15 UTC
(28 minutes ago)
VFR
Clouds
  • Clear skies
Temperature Dewpoint
9°C / 48°F 8°C / 46°F
Humidity Altimeter Pressure
94% 30.11" Hg 1020 hPa